Time;durP1;ratioP1;P1;durP2;ratioP2;P2;SDS_P1;SDS_P2;PMS_P1;PMS_P2;Temp;Humidity;BMP_temperature;BMP_pressure;BME280_temperature;BME280_humidity;BME280_pressure;Samples;Min_cycle;Max_cycle;Signal;HPM_P1;HPM_P2
2021/03/06 00:30:40;;;;;;;1999.90;999.90;;;-0.40;99.90;;;;;;4903724;29;20213;-90
2021/03/06 00:33:09;;;;;;;1999.90;999.90;;;-0.40;99.90;;;;;;4902719;29;20170;-90
2021/03/06 00:35:37;;;;;;;1999.90;999.90;;;-0.40;99.90;;;;;;4917040;29;20189;-90
2021/03/06 00:38:10;;;;;;;1999.90;999.90;;;-0.40;99.90;;;;;;4902378;29;20170;-90
2021/03/06 00:40:50;;;;;;;1999.90;999.90;;;-0.50;99.90;;;;;;4924581;28;20154;-90
2021/03/06 00:43:15;;;;;;;1999.90;999.90;;;-0.50;99.90;;;;;;4959959;28;20183;-90
2021/03/06 00:45:44;;;;;;;1999.90;999.90;;;-0.50;99.90;;;;;;4960307;28;20660;-91
2021/03/06 00:48:19;;;;;;;1999.90;999.90;;;-0.50;99.90;;;;;;4976329;28;20446;-90
2021/03/06 00:50:56;;;;;;;1999.90;999.90;;;-0.50;99.90;;;;;;4960496;28;20160;-90
2021/03/06 00:53:46;;;;;;;1999.90;999.90;;;-0.50;99.90;;;;;;4959824;28;20171;-90
2021/03/06 00:56:11;;;;;;;1999.90;999.90;;;-0.50;99.90;;;;;;4977234;28;20626;-90
2021/03/06 00:58:53;;;;;;;1999.90;999.90;;;-0.50;99.90;;;;;;4977401;28;20167;-90
2021/03/06 01:01:24;;;;;;;1999.90;999.90;;;-0.50;99.90;;;;;;4960163;28;20905;-90
2021/03/06 01:03:56;;;;;;;1999.90;999.90;;;-0.50;99.90;;;;;;4962425;28;20253;-90
2021/03/06 01:06:25;;;;;;;1999.90;999.90;;;-0.50;99.90;;;;;;4963353;28;20183;-90
2021/03/06 01:08:51;;;;;;;1999.90;999.90;;;-0.50;99.90;;;;;;4964462;28;20699;-90
2021/03/06 01:11:20;;;;;;;1999.90;999.90;;;-0.50;99.90;;;;;;4960630;28;20168;-90
2021/03/06 01:13:52;;;;;;;1999.90;999.90;;;-0.60;99.90;;;;;;4960809;28;20222;-90
2021/03/06 01:16:38;;;;;;;1999.90;999.90;;;-0.60;99.90;;;;;;4959927;28;20202;-90
2021/03/06 01:19:10;;;;;;;1999.90;999.90;;;-0.60;99.90;;;;;;4959573;28;20194;-90
2021/03/06 01:21:39;;;;;;;1999.90;999.90;;;-0.70;99.90;;;;;;4959916;28;20159;-90
2021/03/06 01:24:08;;;;;;;1999.90;999.90;;;-0.70;99.90;;;;;;4959798;28;20549;-90
2021/03/06 01:26:37;;;;;;;1999.90;999.90;;;-0.70;99.90;;;;;;4960086;28;20171;-90
2021/03/06 01:29:20;;;;;;;1999.90;999.90;;;-0.80;99.90;;;;;;4977511;28;20195;-90
2021/03/06 01:31:47;;;;;;;1999.90;999.90;;;-0.80;99.90;;;;;;4960481;28;20163;-90
2021/03/06 01:34:31;;;;;;;1999.90;999.90;;;-0.80;99.90;;;;;;4977340;28;20156;-90
2021/03/06 01:37:03;;;;;;;1999.90;999.90;;;-0.80;99.90;;;;;;4977260;28;20172;-90
2021/03/06 01:39:29;;;;;;;1999.90;999.90;;;-0.90;99.90;;;;;;4959398;28;20641;-90
2021/03/06 01:41:58;;;;;;;1999.90;999.90;;;-1.00;99.90;;;;;;4959774;28;20186;-90
2021/03/06 01:44:26;;;;;;;1999.90;999.90;;;-1.00;99.90;;;;;;4976370;28;20649;-90
2021/03/06 01:47:03;;;;;;;1999.90;999.90;;;-1.00;99.90;;;;;;4958925;28;20175;-90
2021/03/06 01:49:29;;;;;;;1999.90;999.90;;;-1.00;99.90;;;;;;4958775;28;20222;-90
2021/03/06 01:51:59;;;;;;;1999.90;999.90;;;-1.00;99.90;;;;;;4958722;28;20221;-90
2021/03/06 01:54:26;;;;;;;1999.90;999.90;;;-1.00;99.90;;;;;;4959535;28;20690;-90
2021/03/06 01:56:56;;;;;;;1999.90;999.90;;;-0.90;99.90;;;;;;4958973;28;20175;-89
2021/03/06 01:59:22;;;;;;;1999.90;999.90;;;-1.00;99.90;;;;;;4976263;28;20174;-89
2021/03/06 02:01:48;;;;;;;1999.90;999.90;;;-1.00;99.90;;;;;;4976443;28;20174;-89
2021/03/06 02:04:14;;;;;;;1999.90;999.90;;;-1.00;99.90;;;;;;4959702;28;20172;-89
2021/03/06 02:06:40;;;;;;;1999.90;999.90;;;-1.10;99.90;;;;;;4959310;28;20178;-89
2021/03/06 02:09:06;;;;;;;1999.90;999.90;;;-1.10;99.90;;;;;;4959529;28;20965;-89
2021/03/06 02:11:57;;;;;;;1999.90;999.90;;;-1.10;99.90;;;;;;4959208;28;20174;-89
2021/03/06 02:15:00;;;;;;;1999.90;999.90;;;-1.10;99.90;;;;;;4975911;28;20234;-89
2021/03/06 02:17:39;;;;;;;1999.90;999.90;;;-1.10;99.90;;;;;;4977629;28;20151;-88
2021/03/06 02:20:29;;;;;;;1999.90;999.90;;;-1.10;99.90;;;;;;4959332;28;20622;-89
2021/03/06 02:23:22;;;;;;;1999.90;999.90;;;-1.10;99.90;;;;;;4958794;28;20168;-89
2021/03/06 02:26:22;;;;;;;1999.90;999.90;;;-1.20;99.90;;;;;;4958621;28;20160;-89
2021/03/06 02:29:06;;;;;;;1999.90;999.90;;;-1.20;99.90;;;;;;4975505;28;20199;-89
2021/03/06 02:31:33;;;;;;;1999.90;999.90;;;-1.20;99.90;;;;;;4975645;28;20152;-89
2021/03/06 02:34:12;;;;;;;1999.90;999.90;;;-1.30;99.90;;;;;;4958204;28;20266;-88
2021/03/06 02:36:46;;;;;;;1999.90;999.90;;;-1.30;99.90;;;;;;4975856;28;20143;-88
2021/03/06 02:39:16;;;;;;;1999.90;999.90;;;-1.30;99.90;;;;;;4958514;28;20526;-88
2021/03/06 02:41:43;;;;;;;1999.90;999.90;;;-1.30;99.90;;;;;;4976526;28;20159;-88
2021/03/06 02:44:12;;;;;;;1999.90;999.90;;;-1.30;99.90;;;;;;4964738;28;20756;-88
2021/03/06 02:46:38;;;;;;;1999.90;999.90;;;-1.30;99.90;;;;;;4976312;28;20178;-88
2021/03/06 02:49:04;;;;;;;1999.90;999.90;;;-1.40;99.90;;;;;;4993955;28;20214;-88
2021/03/06 02:51:41;;;;;;;1999.90;999.90;;;-1.40;99.90;;;;;;4993838;28;20244;-88
2021/03/06 02:54:08;;;;;;;1999.90;999.90;;;-1.40;99.90;;;;;;4978912;28;20506;-88
2021/03/06 02:56:36;;;;;;;1999.90;999.90;;;-1.40;99.90;;;;;;4995916;28;20223;-88
2021/03/06 02:59:11;;;;;;;1999.90;999.90;;;-1.50;99.90;;;;;;4966193;28;20168;-88
2021/03/06 03:01:54;;;;;;;1999.90;999.90;;;-1.40;99.90;;;;;;4960685;28;20169;-88
2021/03/06 03:04:45;;;;;;;1999.90;999.90;;;-1.40;99.90;;;;;;4960730;28;20186;-88
2021/03/06 03:07:21;;;;;;;1999.90;999.90;;;-1.50;99.90;;;;;;4959287;28;20542;-88
2021/03/06 03:09:52;;;;;;;1999.90;999.90;;;-1.50;99.90;;;;;;4974828;28;20189;-88
2021/03/06 03:12:29;;;;;;;1999.90;999.90;;;-1.50;99.90;;;;;;4957841;28;20167;-88
2021/03/06 03:15:09;;;;;;;1999.90;999.90;;;-1.60;99.90;;;;;;4975072;28;20183;-88
2021/03/06 03:17:37;;;;;;;1999.90;999.90;;;-1.60;99.90;;;;;;4957412;28;20167;-88
2021/03/06 03:20:05;;;;;;;1999.90;999.90;;;-1.60;99.90;;;;;;4974578;28;20171;-88
2021/03/06 03:22:36;;;;;;;1999.90;999.90;;;-1.70;99.90;;;;;;4957391;28;20705;-88
2021/03/06 03:25:07;;;;;;;1999.90;999.90;;;-1.60;99.90;;;;;;4974985;28;20607;-87
2021/03/06 03:27:36;;;;;;;1999.90;999.90;;;-1.70;99.90;;;;;;4974685;28;20171;-88
2021/03/06 03:30:09;;;;;;;1999.90;999.90;;;-1.70;99.90;;;;;;4957192;28;20226;-87
2021/03/06 03:32:39;;;;;;;1999.90;999.90;;;-1.70;99.90;;;;;;4974941;28;20576;-87
2021/03/06 03:35:11;;;;;;;1999.90;999.90;;;-1.70;99.90;;;;;;4976132;28;20167;-88
2021/03/06 03:37:37;;;;;;;1999.90;999.90;;;-1.70;99.90;;;;;;4974246;28;20163;-87
2021/03/06 03:40:04;;;;;;;1999.90;999.90;;;-1.70;99.90;;;;;;4957056;28;20175;-87
2021/03/06 03:42:32;;;;;;;1999.90;999.90;;;-1.70;99.90;;;;;;4974377;28;20164;-87
2021/03/06 03:44:59;;;;;;;1999.90;999.90;;;-1.80;99.90;;;;;;4957756;28;20174;-87
2021/03/06 03:47:25;;;;;;;1999.90;999.90;;;-1.80;99.90;;;;;;4957039;28;20186;-87
2021/03/06 03:49:50;;;;;;;1999.90;999.90;;;-1.80;99.90;;;;;;4956830;28;20566;-87
2021/03/06 03:52:16;;;;;;;1999.90;999.90;;;-1.80;99.90;;;;;;4974301;28;20170;-87
2021/03/06 03:54:42;;;;;;;1999.90;999.90;;;-1.90;99.90;;;;;;4974178;28;20163;-87
2021/03/06 03:57:09;;;;;;;1999.90;999.90;;;-1.90;99.90;;;;;;4956854;28;20925;-87
2021/03/06 03:59:35;;;;;;;1999.90;999.90;;;-1.90;99.90;;;;;;4974573;28;20175;-87
2021/03/06 04:02:00;;;;;;;1999.90;999.90;;;-1.90;99.90;;;;;;4974719;28;20530;-87
2021/03/06 04:04:26;;;;;;;1999.90;999.90;;;-2.00;99.90;;;;;;4975957;28;20406;-87
2021/03/06 04:06:55;;;;;;;1999.90;999.90;;;-1.90;99.90;;;;;;4974299;28;20596;-87
2021/03/06 04:09:21;;;;;;;1999.90;999.90;;;-1.90;99.90;;;;;;4956924;28;20195;-87
2021/03/06 04:11:47;;;;;;;1999.90;999.90;;;-2.00;99.90;;;;;;4974321;28;20206;-87
2021/03/06 04:14:13;;;;;;;1999.90;999.90;;;-2.00;99.90;;;;;;4957414;28;20622;-87
2021/03/06 04:16:39;;;;;;;1999.90;999.90;;;-2.00;99.90;;;;;;4973973;28;20490;-87
2021/03/06 04:19:05;;;;;;;1999.90;999.90;;;-2.00;99.90;;;;;;4973963;28;20172;-87
2021/03/06 04:21:31;;;;;;;1999.90;999.90;;;-2.00;99.90;;;;;;4974737;28;20174;-87
2021/03/06 04:23:57;;;;;;;1999.90;999.90;;;-2.00;99.90;;;;;;4977537;28;21054;-87
2021/03/06 04:26:35;;;;;;;1999.90;999.90;;;-2.10;99.90;;;;;;5028857;23;20251;-87
2021/03/06 04:29:41;;;;;;;1999.90;999.90;;;-2.10;99.90;;;;;;4965500;28;20478;-88
2021/03/06 04:35:51;;;;;;;;;;;;;;;;;;;;;
2021/03/06 04:38:56;;;;;;;;;;;;;;;;;;;;;
2021/03/06 04:42:14;;;;;;;1999.90;999.90;;;-2.20;99.90;;;;;;4965167;29;20706;-88
2021/03/06 04:45:21;;;;;;;1999.90;999.90;;;-2.20;99.90;;;;;;4928235;29;20211;-88
2021/03/06 04:48:37;;;;;;;1999.90;999.90;;;-2.20;99.90;;;;;;4886593;29;20302;-88
2021/03/06 04:51:54;;;;;;;1999.90;999.90;;;-2.20;99.90;;;;;;4886459;29;20183;-87
2021/03/06 04:54:54;;;;;;;1999.90;999.90;;;-2.20;99.90;;;;;;4887430;29;20214;-88
2021/03/06 04:57:48;;;;;;;1999.90;999.90;;;-2.20;99.90;;;;;;4831708;29;20208;-88
2021/03/06 05:04:41;;;;;;;1999.90;999.90;;;-2.20;99.90;;;;;;4886937;29;20238;-88
2021/03/06 05:07:47;;;;;;;1999.90;999.90;;;-2.30;99.90;;;;;;4824726;29;20296;-88
2021/03/06 05:21:18;;;;;;;1999.90;999.90;;;-2.30;99.90;;;;;;4849419;29;20180;-88
2021/03/06 05:26:42;;;;;;;1999.90;999.90;;;-2.40;99.90;;;;;;4849007;23;20585;-82
2021/03/06 05:29:08;;;;;;;1999.90;999.90;;;-2.40;99.90;;;;;;4964519;28;20282;-82
2021/03/06 05:31:33;;;;;;;1999.90;999.90;;;-2.40;99.90;;;;;;4981790;28;20167;-82
2021/03/06 05:33:59;;;;;;;1999.90;999.90;;;-2.40;99.90;;;;;;4981858;28;20179;-82
2021/03/06 05:36:25;;;;;;;1999.90;999.90;;;-2.40;99.90;;;;;;4983597;28;20615;-82
2021/03/06 05:38:51;;;;;;;1999.90;999.90;;;-2.50;99.90;;;;;;4983049;28;20661;-82
2021/03/06 05:41:20;;;;;;;1999.90;999.90;;;-2.50;99.90;;;;;;4964209;28;20658;-82
2021/03/06 05:43:46;;;;;;;1999.90;999.90;;;-2.40;99.90;;;;;;4982297;28;20167;-82
2021/03/06 05:46:18;;;;;;;1999.90;999.90;;;-2.40;99.90;;;;;;4984206;28;20201;-82
2021/03/06 05:48:44;;;;;;;1999.90;999.90;;;-2.50;99.90;;;;;;4984006;28;20443;-82
2021/03/06 05:51:11;;;;;;;1999.90;999.90;;;-2.50;99.90;;;;;;4983058;28;20693;-82
2021/03/06 05:53:39;;;;;;;1999.90;999.90;;;-2.50;99.90;;;;;;4964000;28;20167;-81
2021/03/06 05:56:08;;;;;;;1999.90;999.90;;;-2.50;99.90;;;;;;4981465;28;20156;-81
2021/03/06 05:58:35;;;;;;;1999.90;999.90;;;-2.50;99.90;;;;;;4980619;28;20167;-82
2021/03/06 06:01:02;;;;;;;1999.90;999.90;;;-2.50;99.90;;;;;;4965128;28;20171;-82
2021/03/06 06:03:30;;;;;;;1999.90;999.90;;;-2.50;99.90;;;;;;4982193;28;20504;-81
2021/03/06 06:05:56;;;;;;;1999.90;999.90;;;-2.50;99.90;;;;;;4982778;28;20172;-82
2021/03/06 06:08:23;;;;;;;1999.90;999.90;;;-2.50;99.90;;;;;;4982073;28;20187;-81
2021/03/06 06:10:49;;;;;;;1999.90;999.90;;;-2.50;99.90;;;;;;4965862;28;20171;-81
2021/03/06 06:13:15;;;;;;;1999.90;999.90;;;-2.60;99.90;;;;;;4963755;28;20235;-79
2021/03/06 06:15:41;;;;;;;1999.90;999.90;;;-2.60;99.90;;;;;;4982695;28;20174;-82
2021/03/06 06:18:06;;;;;;;1999.90;999.90;;;-2.50;99.90;;;;;;4983071;28;20167;-82
2021/03/06 06:20:37;;;;;;;1999.90;999.90;;;-2.50;99.90;;;;;;4970760;28;20198;-81
2021/03/06 06:23:11;;;;;;;1999.90;999.90;;;-2.60;99.90;;;;;;4990567;28;20143;-81
2021/03/06 06:25:36;;;;;;;1999.90;999.90;;;-2.50;99.90;;;;;;4970812;28;20534;-81
2021/03/06 06:28:04;;;;;;;1999.90;999.90;;;-2.50;99.90;;;;;;4964617;28;20190;-81
2021/03/06 06:30:30;;;;;;;1999.90;999.90;;;-2.50;99.90;;;;;;4981864;28;20912;-81
2021/03/06 06:32:56;;;;;;;1999.90;999.90;;;-2.50;99.90;;;;;;4981843;28;20178;-82
2021/03/06 06:35:22;;;;;;;1999.90;999.90;;;-2.50;99.90;;;;;;4964450;28;20634;-81
2021/03/06 06:38:03;;;;;;;1999.90;999.90;;;-2.40;99.90;;;;;;4965823;28;20190;-82
2021/03/06 06:40:32;;;;;;;1999.90;999.90;;;-2.40;99.90;;;;;;4983730;28;20239;-82
2021/03/06 06:42:58;;;;;;;1999.90;999.90;;;-2.40;99.90;;;;;;4983318;28;20163;-83
2021/03/06 06:45:37;;;;;;;1999.90;999.90;;;-2.30;99.90;;;;;;4964292;28;20649;-82
2021/03/06 06:48:13;;;;;;;1999.90;999.90;;;-2.30;99.90;;;;;;4981735;28;20167;-82
2021/03/06 06:50:38;;;;;;;1999.90;999.90;;;-2.30;99.90;;;;;;4982512;28;20167;-82
2021/03/06 06:53:04;;;;;;;1999.90;999.90;;;-2.20;99.90;;;;;;4981800;28;20159;-82
2021/03/06 06:55:38;;;;;;;1999.90;999.90;;;-2.20;99.90;;;;;;4964137;28;20419;-82
2021/03/06 06:58:04;;;;;;;1999.90;999.90;;;-2.10;99.90;;;;;;4981211;28;20182;-82
2021/03/06 07:00:31;;;;;;;1999.90;999.90;;;-2.00;99.90;;;;;;4981089;28;20167;-82
2021/03/06 07:02:59;;;;;;;1999.90;999.90;;;-2.00;99.90;;;;;;4982056;28;20173;-82
2021/03/06 07:05:31;;;;;;;1999.90;999.90;;;-1.90;99.90;;;;;;4966348;28;20598;-81
2021/03/06 07:07:58;;;;;;;1999.90;999.90;;;-1.90;99.90;;;;;;4965845;28;20191;-82
2021/03/06 07:10:32;;;;;;;1999.90;999.90;;;-1.80;99.90;;;;;;4980709;28;20230;-81
2021/03/06 07:13:05;;;;;;;1999.90;999.90;;;-1.70;99.90;;;;;;4980563;28;20147;-82
2021/03/06 07:15:32;;;;;;;1999.90;999.90;;;-1.60;99.90;;;;;;4980564;28;20155;-81
2021/03/06 07:18:00;;;;;;;1999.90;999.90;;;-1.50;99.90;;;;;;4979951;28;20190;-82
2021/03/06 07:20:34;;;;;;;1999.90;999.90;;;-1.40;99.90;;;;;;4979928;28;20638;-81
2021/03/06 07:23:16;;;;;;;1999.90;999.90;;;-1.40;99.90;;;;;;4962161;28;20618;-81
2021/03/06 07:25:42;;;;;;;1999.90;999.90;;;-1.30;99.90;;;;;;4961957;28;20199;-82
2021/03/06 07:28:08;;;;;;;1999.90;999.90;;;-1.20;99.90;;;;;;4979988;28;20183;-82
2021/03/06 07:30:34;;;;;;;1999.90;999.90;;;-1.10;99.90;;;;;;4961520;28;20187;-81
2021/03/06 07:33:05;;;;;;;1999.90;999.90;;;-1.00;99.90;;;;;;4962110;28;20184;-82
2021/03/06 07:35:39;;;;;;;1999.90;999.90;;;-1.00;99.90;;;;;;4962052;28;20411;-82
2021/03/06 07:38:10;;;;;;;1999.90;999.90;;;-0.90;99.90;;;;;;4961702;28;20221;-82
2021/03/06 07:40:39;;;;;;;1999.90;999.90;;;-0.80;99.90;;;;;;4979692;28;20147;-81
2021/03/06 07:43:37;;;;;;;1999.90;999.90;;;-0.80;99.90;;;;;;4979294;28;20171;-82
2021/03/06 07:46:05;;;;;;;1999.90;999.90;;;-0.70;99.90;;;;;;4969030;28;20226;-82
2021/03/06 07:48:42;;;;;;;1999.90;999.90;;;-0.60;99.90;;;;;;4962172;28;20191;-82
2021/03/06 07:51:09;;;;;;;1999.90;999.90;;;-0.60;99.90;;;;;;4979754;28;20151;-82
2021/03/06 07:53:36;;;;;;;1999.90;999.90;;;-0.50;99.90;;;;;;4979302;28;20222;-81
2021/03/06 07:56:06;;;;;;;1999.90;999.90;;;-0.40;99.90;;;;;;4979592;28;20701;-81
2021/03/06 07:58:49;;;;;;;1999.90;999.90;;;-0.40;99.90;;;;;;4966022;28;20275;-81
2021/03/06 08:01:28;;;;;;;1999.90;999.90;;;-0.40;99.90;;;;;;4983562;28;20224;-82
2021/03/06 08:03:54;;;;;;;1999.90;999.90;;;-0.40;99.90;;;;;;4982862;28;20167;-81
2021/03/06 08:06:20;;;;;;;1999.90;999.90;;;-0.30;99.90;;;;;;4983169;28;20171;-81
2021/03/06 08:08:46;;;;;;;1999.90;999.90;;;-0.20;99.90;;;;;;4982909;28;20193;-81
2021/03/06 08:11:23;;;;;;;1999.90;999.90;;;-0.20;99.90;;;;;;4983561;28;20191;-81
2021/03/06 08:13:57;;;;;;;1999.90;999.90;;;-0.10;99.90;;;;;;4983628;28;20155;-81
2021/03/06 08:16:29;;;;;;;1999.90;999.90;;;-0.10;99.90;;;;;;4965861;28;20186;-81
2021/03/06 08:19:12;;;;;;;1999.90;999.90;;;-0.10;99.90;;;;;;4983074;28;20159;-81
2021/03/06 08:21:48;;;;;;;1999.90;999.90;;;-0.10;99.90;;;;;;4965332;28;20175;-81
2021/03/06 08:24:14;;;;;;;1999.90;999.90;;;-0.10;99.90;;;;;;4983055;28;20151;-81
2021/03/06 08:26:53;;;;;;;1999.90;999.90;;;0.00;99.90;;;;;;4982476;28;20185;-81
2021/03/06 08:29:27;;;;;;;1999.90;999.90;;;0.00;99.90;;;;;;4964861;28;20202;-81
2021/03/06 08:32:03;;;;;;;1999.90;999.90;;;0.10;99.90;;;;;;4982540;28;20174;-81
2021/03/06 08:34:32;;;;;;;1999.90;999.90;;;0.10;99.90;;;;;;4982171;28;20151;-81
2021/03/06 08:37:25;;;;;;;1999.90;999.90;;;0.20;99.90;;;;;;4981897;28;20172;-81
2021/03/06 08:39:59;;;;;;;1999.90;999.90;;;0.30;99.90;;;;;;4966040;28;20166;-81
2021/03/06 08:42:33;;;;;;;1999.90;999.90;;;0.40;99.90;;;;;;4964998;28;20175;-81
2021/03/06 08:45:23;;;;;;;1999.90;999.90;;;0.40;99.90;;;;;;4982097;28;20187;-80
2021/03/06 08:47:58;;;;;;;1999.90;999.90;;;0.50;99.90;;;;;;4965040;28;20245;-81
2021/03/06 08:50:24;;;;;;;1999.90;999.90;;;0.50;99.90;;;;;;4966294;28;20163;-81
2021/03/06 08:53:05;;;;;;;1999.90;999.90;;;0.60;99.90;;;;;;4982048;28;20175;-81
2021/03/06 08:55:33;;;;;;;1999.90;999.90;;;0.70;99.90;;;;;;4983667;28;20730;-80
2021/03/06 08:58:09;;;;;;;1999.90;999.90;;;0.80;99.90;;;;;;4986697;28;20164;-80
2021/03/06 09:00:39;;;;;;;1999.90;999.90;;;0.80;99.90;;;;;;4966042;28;20178;-80
2021/03/06 09:03:24;;;;;;;1999.90;999.90;;;1.00;99.90;;;;;;4982186;28;20154;-80
2021/03/06 09:05:58;;;;;;;1999.90;999.90;;;1.00;99.90;;;;;;4981422;28;20167;-80
2021/03/06 09:08:27;;;;;;;1999.90;999.90;;;1.10;99.90;;;;;;4963593;28;20234;-80
2021/03/06 09:10:57;;;;;;;1999.90;999.90;;;1.20;99.90;;;;;;4981330;28;20167;-80
2021/03/06 09:13:25;;;;;;;1999.90;999.90;;;1.20;99.90;;;;;;4981051;28;20488;-80
2021/03/06 09:16:03;;;;;;;1999.90;999.90;;;1.30;99.90;;;;;;4980356;28;20550;-80
2021/03/06 09:18:30;;;;;;;1999.90;999.90;;;1.40;99.90;;;;;;4963073;28;20253;-80
2021/03/06 09:21:01;;;;;;;1999.90;999.90;;;1.40;99.90;;;;;;4981339;28;20566;-80
2021/03/06 09:23:38;;;;;;;1999.90;999.90;;;1.50;99.90;;;;;;4980894;28;20163;-80
2021/03/06 09:26:09;;;;;;;1999.90;999.90;;;1.60;99.90;;;;;;4980575;28;20147;-80
2021/03/06 09:28:35;;;;;;;1999.90;999.90;;;1.70;99.90;;;;;;4980751;28;20186;-80
2021/03/06 09:31:12;;;;;;;1999.90;999.90;;;1.70;99.90;;;;;;4979976;28;20159;-80
2021/03/06 09:33:38;;;;;;;1999.90;999.90;;;1.80;99.90;;;;;;4962820;28;20163;-80
2021/03/06 09:36:13;;;;;;;1999.90;999.90;;;1.90;99.90;;;;;;4962625;28;20262;-80
2021/03/06 09:38:46;;;;;;;1999.90;999.90;;;2.00;99.90;;;;;;4979966;28;20614;-80
2021/03/06 09:41:13;;;;;;;1999.90;999.90;;;2.00;99.90;;;;;;4962926;28;20246;-80
2021/03/06 09:43:40;;;;;;;1999.90;999.90;;;2.20;99.90;;;;;;4980290;28;20218;-80
2021/03/06 09:46:16;;;;;;;1999.90;999.90;;;2.30;99.90;;;;;;4979621;28;20716;-80
2021/03/06 09:48:55;;;;;;;1999.90;999.90;;;2.40;99.90;;;;;;4979542;28;20194;-80
2021/03/06 09:51:24;;;;;;;1999.90;999.90;;;2.50;99.90;;;;;;4946220;28;20175;-80
2021/03/06 09:53:59;;;;;;;1999.90;999.90;;;2.70;99.90;;;;;;4961829;28;20238;-80
2021/03/06 09:56:26;;;;;;;1999.90;999.90;;;2.80;99.90;;;;;;4961931;28;20194;-80
2021/03/06 09:59:05;;;;;;;1999.90;999.90;;;2.80;99.90;;;;;;4961844;28;20175;-80
2021/03/06 10:01:34;;;;;;;1999.90;999.90;;;2.90;99.90;;;;;;4979285;28;20171;-80
2021/03/06 10:04:10;;;;;;;1999.90;999.90;;;3.10;99.90;;;;;;4961498;28;20175;-80
2021/03/06 10:06:38;;;;;;;1999.90;999.90;;;3.20;99.90;;;;;;4979257;28;20168;-80
2021/03/06 10:09:06;;;;;;;1999.90;999.90;;;3.40;99.90;;;;;;4961609;28;20673;-80
2021/03/06 10:11:43;;;;;;;1999.90;999.90;;;3.70;99.90;;;;;;4978816;28;20167;-80
2021/03/06 10:14:11;;;;;;;1999.90;999.90;;;3.90;99.90;;;;;;4961188;28;20158;-80
2021/03/06 10:16:55;;;;;;;1999.90;999.90;;;4.10;99.90;;;;;;4978909;28;20167;-80
2021/03/06 10:19:27;;;;;;;1999.90;999.90;;;4.20;98.50;;;;;;4978893;28;20158;-80
2021/03/06 10:22:05;;;;;;;1999.90;999.90;;;4.50;96.50;;;;;;4979129;28;20158;-80
2021/03/06 10:24:49;;;;;;;1999.90;999.90;;;4.70;83.30;;;;;;4979037;28;20669;-80
2021/03/06 10:30:08;;;;;;;1999.90;999.90;;;4.70;80.60;;;;;;4962379;29;20198;-82
2021/03/06 10:33:06;;;;;;;;;;;;;;;;;;;;;
2021/03/06 10:35:57;;;;;;;1999.90;999.90;;;5.00;50.60;;;;;;4964111;29;20243;-82
2021/03/06 10:38:40;;;;;;;1999.90;999.90;;;5.00;58.20;;;;;;4963195;29;20160;-82
2021/03/06 10:41:23;;;;;;;1999.90;999.90;;;5.30;56.50;;;;;;4962465;29;20171;-81
2021/03/06 10:44:03;;;;;;;1999.90;999.90;;;5.60;49.10;;;;;;4946842;29;20252;-81
2021/03/06 10:46:35;;;;;;;1999.90;999.90;;;5.90;32.80;;;;;;4962508;29;20583;-81
2021/03/06 10:49:11;;;;;;;1999.90;999.90;;;6.20;28.80;;;;;;4962254;29;20192;-81
2021/03/06 10:51:42;;;;;;;1999.90;999.90;;;6.20;19.30;;;;;;4945971;29;20172;-82
2021/03/06 10:54:11;;;;;;;1999.90;999.90;;;6.30;20.70;;;;;;4945635;29;20172;-82
2021/03/06 10:56:45;;;;;;;1999.90;999.90;;;6.50;17.20;;;;;;4944926;29;20268;-81
2021/03/06 10:59:14;;;;;;;1999.90;999.90;;;6.40;9.40;;;;;;4945265;29;20167;-81
2021/03/06 11:01:58;;;;;;;1999.90;999.90;;;6.00;10.20;;;;;;4944255;29;20183;-82
2021/03/06 11:04:32;;;;;;;1999.90;999.90;;;6.10;8.90;;;;;;4965426;29;20163;-81
2021/03/06 11:07:08;;;;;;;1999.90;999.90;;;6.40;8.30;;;;;;4962583;29;20246;-81
2021/03/06 11:09:36;;;;;;;1999.90;999.90;;;6.40;7.80;;;;;;4963121;29;20186;-81
2021/03/06 11:12:55;;;;;;;1999.90;999.90;;;6.70;5.10;;;;;;4962642;29;20164;-81
2021/03/06 11:15:27;;;;;;;1999.90;999.90;;;6.30;1.00;;;;;;4922044;29;20185;-81
2021/03/06 11:18:00;;;;;;;1999.90;999.90;;;6.30;1.00;;;;;;4960629;29;20204;-82
2021/03/06 11:20:32;;;;;;;1999.90;999.90;;;6.40;1.00;;;;;;4963059;29;20207;-81
2021/03/06 11:23:02;;;;;;;1999.90;999.90;;;6.60;1.00;;;;;;4963223;29;20179;-82
2021/03/06 11:25:29;;;;;;;1999.90;999.90;;;6.30;1.00;;;;;;4962900;29;20172;-81
2021/03/06 11:27:57;;;;;;;1999.90;999.90;;;6.70;1.30;;;;;;4945605;29;20239;-81
2021/03/06 11:30:26;;;;;;;1999.90;999.90;;;6.90;1.00;;;;;;4946023;29;20169;-81
2021/03/06 11:32:53;;;;;;;1999.90;999.90;;;7.30;1.00;;;;;;4948146;29;20174;-81
2021/03/06 11:35:20;;;;;;;1999.90;999.90;;;7.30;1.00;;;;;;4967216;29;20264;-81
2021/03/06 11:37:53;;;;;;;1999.90;999.90;;;7.30;1.00;;;;;;4966715;29;20214;-82
2021/03/06 11:40:23;;;;;;;1999.90;999.90;;;6.70;1.00;;;;;;4966674;29;20180;-81
2021/03/06 11:42:50;;;;;;;1999.90;999.90;;;6.60;1.00;;;;;;4967599;29;20157;-81
2021/03/06 11:45:17;;;;;;;1999.90;999.90;;;6.40;1.00;;;;;;4967087;29;20223;-81
2021/03/06 11:47:48;;;;;;;1999.90;999.90;;;6.40;1.00;;;;;;4967135;29;20194;-82
2021/03/06 11:50:28;;;;;;;1999.90;999.90;;;6.60;1.00;;;;;;4967465;29;20184;-82
2021/03/06 11:52:58;;;;;;;1999.90;999.90;;;7.10;1.00;;;;;;4948871;29;20156;-82
2021/03/06 11:55:26;;;;;;;1999.90;999.90;;;6.90;1.00;;;;;;4966582;29;20164;-81
2021/03/06 11:57:54;;;;;;;1999.90;999.90;;;6.80;1.00;;;;;;4964821;29;20168;-81
2021/03/06 12:00:26;;;;;;;1999.90;999.90;;;7.00;1.00;;;;;;4965821;29;20183;-81
2021/03/06 12:02:52;;;;;;;1999.90;999.90;;;7.40;1.00;;;;;;4965881;29;20162;-81
2021/03/06 12:05:18;;;;;;;1999.90;999.90;;;7.50;1.00;;;;;;4949111;29;20180;-81
2021/03/06 12:07:45;;;;;;;1999.90;999.90;;;7.30;1.00;;;;;;4948437;29;20179;-81
2021/03/06 12:10:14;;;;;;;1999.90;999.90;;;7.50;1.00;;;;;;4948704;29;20446;-82
2021/03/06 12:12:41;;;;;;;1999.90;999.90;;;8.00;1.00;;;;;;4949051;29;20172;-81
2021/03/06 12:15:08;;;;;;;1999.90;999.90;;;7.80;1.00;;;;;;4965953;29;20168;-81
2021/03/06 12:17:34;;;;;;;1999.90;999.90;;;8.00;1.00;;;;;;4965569;29;20160;-81
2021/03/06 12:20:00;;;;;;;1999.90;999.90;;;8.10;1.00;;;;;;4948408;29;20172;-81
2021/03/06 12:22:26;;;;;;;1999.90;999.90;;;7.90;1.00;;;;;;4964829;29;20266;-81
2021/03/06 12:24:52;;;;;;;1999.90;999.90;;;8.00;1.00;;;;;;4966466;29;20195;-81
2021/03/06 12:27:18;;;;;;;1999.90;999.90;;;7.80;1.00;;;;;;4950197;29;20179;-81
2021/03/06 12:29:44;;;;;;;1999.90;999.90;;;7.70;1.00;;;;;;4966579;29;20195;-81
2021/03/06 12:32:10;;;;;;;1999.90;999.90;;;7.80;1.00;;;;;;4965545;29;20191;-81
2021/03/06 12:34:35;;;;;;;1999.90;999.90;;;8.10;1.00;;;;;;4965967;29;20461;-81
2021/03/06 12:37:02;;;;;;;1999.90;999.90;;;8.50;1.00;;;;;;4965903;29;20168;-82
2021/03/06 12:39:28;;;;;;;1999.90;999.90;;;8.30;1.00;;;;;;4965619;29;20176;-81
2021/03/06 12:41:53;;;;;;;1999.90;999.90;;;8.20;1.00;;;;;;4965164;29;20168;-81
2021/03/06 12:44:20;;;;;;;1999.90;999.90;;;8.40;1.00;;;;;;4946603;29;20178;-81
2021/03/06 12:46:49;;;;;;;1999.90;999.90;;;8.30;1.00;;;;;;4965936;29;20603;-81
2021/03/06 12:49:18;;;;;;;1999.90;999.90;;;8.40;1.00;;;;;;4965343;29;20272;-81
2021/03/06 12:51:44;;;;;;;1999.90;999.90;;;8.40;1.00;;;;;;4965494;29;20160;-82
2021/03/06 12:54:10;;;;;;;1999.90;999.90;;;8.80;1.00;;;;;;4965417;29;20168;-81
2021/03/06 12:56:35;;;;;;;1999.90;999.90;;;8.80;1.00;;;;;;4948095;29;20754;-81
2021/03/06 12:59:01;;;;;;;1999.90;999.90;;;8.60;1.00;;;;;;4965079;29;20214;-82
2021/03/06 13:01:27;;;;;;;1999.90;999.90;;;8.80;1.00;;;;;;4947834;29;20186;-81
2021/03/06 13:03:53;;;;;;;1999.90;999.90;;;9.10;1.00;;;;;;4964776;29;20430;-81
2021/03/06 13:06:19;;;;;;;1999.90;999.90;;;9.30;1.00;;;;;;4947692;29;20179;-82
2021/03/06 13:08:45;;;;;;;1999.90;999.90;;;9.30;1.00;;;;;;4965499;29;20466;-81
2021/03/06 13:11:13;;;;;;;1999.90;999.90;;;9.10;1.00;;;;;;4948864;29;20172;-81
2021/03/06 13:13:39;;;;;;;1999.90;999.90;;;9.10;1.00;;;;;;4947789;29;20168;-81
2021/03/06 13:16:06;;;;;;;1999.90;999.90;;;8.90;1.00;;;;;;4946285;29;20539;-81
2021/03/06 13:18:32;;;;;;;1999.90;999.90;;;8.60;1.00;;;;;;4963824;29;20404;-81
2021/03/06 13:20:59;;;;;;;1999.90;999.90;;;8.20;1.00;;;;;;4964546;29;20168;-81
2021/03/06 13:23:24;;;;;;;1999.90;999.90;;;8.40;1.00;;;;;;4947117;29;20658;-81
2021/03/06 13:25:51;;;;;;;1999.90;999.90;;;8.50;1.00;;;;;;4946943;29;20176;-81
2021/03/06 13:28:17;;;;;;;1999.90;999.90;;;8.70;1.00;;;;;;4946863;29;20226;-81